createdAt,value
2019-03-05T00:01:34.179Z,6.60
2019-03-05T00:04:03.696Z,6.60
2019-03-05T00:06:33.321Z,6.60
2019-03-05T00:09:02.877Z,6.60
2019-03-05T00:11:32.896Z,6.70
2019-03-05T00:14:02.448Z,6.70
2019-03-05T00:16:32.009Z,6.70
2019-03-05T00:19:01.540Z,6.70
2019-03-05T00:21:31.231Z,6.70
2019-03-05T00:24:37.430Z,6.70
2019-03-05T00:27:06.937Z,6.80
2019-03-05T00:30:03.296Z,6.80
2019-03-05T00:32:34.132Z,6.80
2019-03-05T00:35:23.748Z,6.80
2019-03-05T00:38:15.295Z,6.80
2019-03-05T00:40:58.678Z,6.80
2019-03-05T00:43:59.556Z,6.80
2019-03-05T00:47:02.069Z,6.80
2019-03-05T00:50:12.040Z,6.80
2019-03-05T00:53:12.590Z,6.80
2019-03-05T00:56:29.014Z,6.70
2019-03-05T00:59:36.991Z,6.80
2019-03-05T01:02:33.852Z,6.70
2019-03-05T01:05:46.215Z,6.70
2019-03-05T01:08:15.725Z,6.70
2019-03-05T01:10:45.357Z,6.70
2019-03-05T01:13:15.751Z,6.70
2019-03-05T01:15:45.410Z,6.70
2019-03-05T01:18:15.104Z,6.70
2019-03-05T01:21:05.463Z,6.60
2019-03-05T01:23:35.103Z,6.60
2019-03-05T01:26:04.876Z,6.70
2019-03-05T01:28:34.518Z,6.70
2019-03-05T01:31:23.585Z,6.70
2019-03-05T01:34:01.905Z,6.60
2019-03-05T01:36:34.787Z,6.70
2019-03-05T01:39:26.832Z,6.70
2019-03-05T01:41:58.649Z,6.60
2019-03-05T01:44:29.455Z,6.70
2019-03-05T01:46:59.917Z,6.70
2019-03-05T01:49:31.599Z,6.70
2019-03-05T01:52:01.084Z,6.60
2019-03-05T01:54:31.123Z,6.70
2019-03-05T01:57:00.779Z,6.70
2019-03-05T01:59:30.343Z,6.60
2019-03-05T02:02:00.022Z,6.50
2019-03-05T02:04:29.656Z,6.50
2019-03-05T02:06:59.234Z,6.50
2019-03-05T02:09:28.956Z,6.60
2019-03-05T02:11:58.664Z,6.60
2019-03-05T02:14:28.366Z,6.60
2019-03-05T02:16:57.941Z,6.50
2019-03-05T02:19:41.882Z,6.50
2019-03-05T02:22:23.988Z,6.50
2019-03-05T02:25:02.941Z,6.50
2019-03-05T02:28:16.458Z,6.50
2019-03-05T02:31:51.269Z,6.50
2019-03-05T02:35:01.792Z,6.50
2019-03-05T02:37:44.074Z,6.60
2019-03-05T02:40:41.252Z,6.60
2019-03-05T02:43:37.224Z,6.60
2019-03-05T02:46:56.907Z,6.60
2019-03-05T02:49:46.383Z,6.60
2019-03-05T02:53:00.233Z,6.60
2019-03-05T02:56:12.881Z,6.60
2019-03-05T02:58:40.744Z,6.70
2019-03-05T03:01:19.487Z,6.70
2019-03-05T03:03:52.257Z,6.70
2019-03-05T03:06:25.007Z,6.60
2019-03-05T03:09:27.761Z,6.60
2019-03-05T03:11:57.281Z,6.50
2019-03-05T03:14:26.742Z,6.40
2019-03-05T03:16:56.255Z,6.20
2019-03-05T03:19:25.678Z,6.10
2019-03-05T03:21:55.276Z,6.00
2019-03-05T03:24:24.733Z,5.90
2019-03-05T03:26:54.195Z,5.80
2019-03-05T03:29:24.282Z,5.60
2019-03-05T03:31:53.879Z,5.50
2019-03-05T03:34:23.321Z,5.40
2019-03-05T03:36:52.821Z,5.40
2019-03-05T03:39:22.423Z,5.30
2019-03-05T03:41:51.941Z,5.20
2019-03-05T03:44:21.520Z,5.20
2019-03-05T03:46:51.128Z,5.20
2019-03-05T03:49:20.754Z,5.00
2019-03-05T03:51:53.958Z,5.00
2019-03-05T03:54:23.520Z,4.90
2019-03-05T03:56:53.065Z,4.80
2019-03-05T03:59:22.605Z,4.70
2019-03-05T04:01:52.186Z,4.70
2019-03-05T04:04:21.973Z,4.60
2019-03-05T04:06:51.792Z,4.60
2019-03-05T04:09:21.348Z,4.60
2019-03-05T04:11:50.885Z,4.60
2019-03-05T04:14:20.429Z,4.70
2019-03-05T04:16:49.901Z,4.80
2019-03-05T04:19:24.037Z,4.90
2019-03-05T04:21:53.661Z,4.90
2019-03-05T04:24:23.127Z,5.00
2019-03-05T04:26:52.592Z,5.00
2019-03-05T04:29:22.137Z,5.10
2019-03-05T04:31:51.668Z,5.20
2019-03-05T04:34:21.292Z,5.20
2019-03-05T04:36:50.917Z,5.20
2019-03-05T04:39:20.494Z,5.30
2019-03-05T04:41:49.998Z,5.30
2019-03-05T04:44:27.637Z,5.40
2019-03-05T04:46:57.210Z,5.40
2019-03-05T04:49:48.729Z,5.50
2019-03-05T04:52:21.333Z,5.40
2019-03-05T04:54:51.260Z,5.50
2019-03-05T04:57:20.764Z,5.50
2019-03-05T04:59:50.306Z,5.50
2019-03-05T05:02:19.781Z,5.60
2019-03-05T05:04:49.357Z,5.50
2019-03-05T05:07:19.099Z,5.50
2019-03-05T05:09:48.580Z,5.50
2019-03-05T05:12:21.865Z,5.50
2019-03-05T05:14:51.414Z,5.50
2019-03-05T05:17:20.863Z,5.50
2019-03-05T05:19:50.472Z,5.50
2019-03-05T05:22:19.980Z,5.50
2019-03-05T05:24:49.506Z,5.60
2019-03-05T05:27:19.055Z,5.60
2019-03-05T05:29:48.539Z,5.60
2019-03-05T05:32:18.473Z,5.60
2019-03-05T05:34:48.022Z,5.60
2019-03-05T05:37:17.831Z,5.50
2019-03-05T05:40:42.707Z,5.50
2019-03-05T05:43:15.030Z,5.60
2019-03-05T05:45:51.922Z,5.60
2019-03-05T05:48:21.535Z,5.60
2019-03-05T05:50:51.095Z,5.50
2019-03-05T05:53:20.855Z,5.50
2019-03-05T05:55:50.420Z,5.60
2019-03-05T05:58:19.920Z,5.60
2019-03-05T06:00:51.765Z,5.60
2019-03-05T06:03:21.361Z,5.60
2019-03-05T06:05:51.172Z,5.60
2019-03-05T06:08:23.741Z,5.60
2019-03-05T06:10:53.413Z,5.60
2019-03-05T06:13:23.062Z,5.60
2019-03-05T06:15:52.733Z,5.60
2019-03-05T06:18:22.258Z,5.70
2019-03-05T06:20:51.853Z,5.70
2019-03-05T06:23:23.112Z,5.70
2019-03-05T06:25:52.617Z,5.70
2019-03-05T06:28:22.467Z,5.70
2019-03-05T06:30:52.000Z,5.60
2019-03-05T06:33:22.015Z,5.60
2019-03-05T06:35:51.617Z,5.60
2019-03-05T06:38:21.272Z,5.60
2019-03-05T06:40:50.752Z,5.50
2019-03-05T06:43:20.589Z,5.50
2019-03-05T06:45:50.157Z,5.40
2019-03-05T06:48:19.817Z,5.40
2019-03-05T06:50:49.292Z,5.30
2019-03-05T06:53:19.144Z,5.40
2019-03-05T06:55:48.670Z,5.40
2019-03-05T06:58:18.141Z,5.40
2019-03-05T07:00:47.736Z,5.40
2019-03-05T07:03:17.266Z,5.50
2019-03-05T07:06:22.430Z,5.50
2019-03-05T07:08:57.230Z,5.70
2019-03-05T07:11:49.086Z,5.60
2019-03-05T07:14:40.322Z,5.50
2019-03-05T07:17:37.809Z,5.40
2019-03-05T07:20:32.175Z,5.40
2019-03-05T07:23:31.884Z,5.40
2019-03-05T07:26:01.461Z,5.50
2019-03-05T07:28:31.015Z,5.40
2019-03-05T07:31:00.607Z,5.40
2019-03-05T07:33:30.137Z,5.40
2019-03-05T07:35:59.728Z,5.40
2019-03-05T07:38:29.341Z,5.40
2019-03-05T07:41:02.000Z,5.50
2019-03-05T07:43:36.474Z,5.50
2019-03-05T07:46:02.806Z,5.60
2019-03-05T07:48:32.346Z,5.60
2019-03-05T07:51:02.039Z,5.60
2019-03-05T07:53:31.518Z,5.60
2019-03-05T07:56:01.097Z,5.60
2019-03-05T07:58:30.715Z,5.70
2019-03-05T08:01:00.292Z,5.70
2019-03-05T08:03:29.976Z,5.80
2019-03-05T08:05:59.586Z,6.00
2019-03-05T08:09:07.106Z,6.20
2019-03-05T08:11:36.583Z,6.40
2019-03-05T08:14:40.570Z,6.70
2019-03-05T08:17:10.087Z,6.90
2019-03-05T08:19:39.664Z,7.00
2019-03-05T08:22:09.761Z,7.10
2019-03-05T08:24:39.319Z,7.20
2019-03-05T08:27:10.658Z,7.20
2019-03-05T08:29:41.391Z,7.20
2019-03-05T08:32:11.547Z,7.00
2019-03-05T08:34:41.265Z,7.00
2019-03-05T08:37:13.340Z,7.00
2019-03-05T08:39:42.261Z,7.10
2019-03-05T08:42:12.383Z,6.90
2019-03-05T08:44:50.013Z,6.70
2019-03-05T08:47:13.254Z,6.70
2019-03-05T08:49:42.753Z,6.60
2019-03-05T08:52:13.518Z,6.60
2019-03-05T08:54:45.359Z,6.40
2019-03-05T08:57:14.245Z,6.30
2019-03-05T08:59:44.187Z,6.30
2019-03-05T09:02:13.811Z,6.30
2019-03-05T09:04:43.371Z,6.40
2019-03-05T09:07:13.104Z,6.50
2019-03-05T09:09:42.676Z,6.40
2019-03-05T09:12:12.385Z,6.40
2019-03-05T09:14:42.138Z,6.60
2019-03-05T09:17:11.807Z,6.60
2019-03-05T09:19:41.284Z,6.60
2019-03-05T09:22:11.503Z,6.70
2019-03-05T09:24:40.961Z,6.90
2019-03-05T09:27:10.574Z,7.00
2019-03-05T09:29:40.288Z,7.20
2019-03-05T09:32:09.768Z,7.30
2019-03-05T09:34:39.330Z,7.30
2019-03-05T09:37:09.009Z,7.30
2019-03-05T09:39:38.459Z,7.10
2019-03-05T09:42:07.974Z,7.00
2019-03-05T09:44:37.480Z,7.00
2019-03-05T09:47:07.068Z,7.00
2019-03-05T09:49:38.666Z,7.00
2019-03-05T09:52:08.229Z,7.10
2019-03-05T09:54:37.788Z,7.20
2019-03-05T09:57:07.342Z,7.40
2019-03-05T09:59:36.828Z,7.60
2019-03-05T10:02:07.293Z,7.30
2019-03-05T10:04:36.890Z,7.10
2019-03-05T10:07:06.742Z,7.00
2019-03-05T10:09:36.405Z,6.90
2019-03-05T10:12:09.704Z,6.80
2019-03-05T10:14:39.313Z,6.90
2019-03-05T10:17:08.835Z,7.00
2019-03-05T10:19:38.583Z,7.10
2019-03-05T10:22:08.463Z,7.20
2019-03-05T10:24:38.058Z,7.30
2019-03-05T10:27:07.753Z,7.60
2019-03-05T10:29:37.351Z,7.80
2019-03-05T10:32:07.182Z,7.70
2019-03-05T10:34:36.788Z,7.70
2019-03-05T10:37:12.595Z,7.60
2019-03-05T10:39:37.823Z,7.50
2019-03-05T10:42:07.604Z,7.40
2019-03-05T10:44:37.165Z,7.40
2019-03-05T10:47:09.087Z,7.40
2019-03-05T10:49:38.968Z,7.40
2019-03-05T10:52:08.672Z,7.60
2019-03-05T10:54:38.247Z,7.70
2019-03-05T10:57:08.372Z,7.70
2019-03-05T10:59:38.001Z,8.00
2019-03-05T11:02:07.719Z,7.80
2019-03-05T11:04:45.721Z,8.00
2019-03-05T11:07:11.687Z,8.10
2019-03-05T11:09:41.482Z,8.20
2019-03-05T11:12:11.150Z,8.30
2019-03-05T11:14:41.447Z,8.50
2019-03-05T11:17:11.170Z,8.70
2019-03-05T11:19:40.822Z,8.60
2019-03-05T11:22:11.731Z,8.80
2019-03-05T11:24:41.472Z,8.70
2019-03-05T11:27:11.302Z,8.50
2019-03-05T11:29:41.683Z,8.50
2019-03-05T11:32:11.693Z,8.70
2019-03-05T11:34:41.431Z,8.80
2019-03-05T11:37:11.141Z,9.00
2019-03-05T11:39:40.601Z,9.20
2019-03-05T11:42:11.138Z,9.30
2019-03-05T11:44:40.777Z,9.40
2019-03-05T11:47:12.237Z,9.40
2019-03-05T11:49:41.893Z,9.40
2019-03-05T11:52:11.419Z,9.20
2019-03-05T11:54:40.968Z,9.10
2019-03-05T11:57:10.502Z,9.20
2019-03-05T11:59:39.931Z,9.20
2019-03-05T12:02:21.060Z,9.00
2019-03-05T12:04:41.510Z,9.00
2019-03-05T12:07:11.232Z,8.90
2019-03-05T12:09:40.778Z,8.80
2019-03-05T12:12:10.363Z,9.10
2019-03-05T12:14:40.081Z,9.10
2019-03-05T12:17:09.521Z,9.10
2019-03-05T12:19:39.028Z,9.20
2019-03-05T12:22:08.707Z,9.00
2019-03-05T12:24:38.204Z,9.00
2019-03-05T12:27:07.791Z,9.00
2019-03-05T12:29:37.301Z,9.20
2019-03-05T12:32:06.843Z,9.30
2019-03-05T12:34:36.822Z,9.50
2019-03-05T12:37:06.358Z,9.60
2019-03-05T12:39:36.972Z,9.30
2019-03-05T12:42:06.605Z,9.20
2019-03-05T12:44:36.188Z,9.30
2019-03-05T12:47:05.903Z,9.30
2019-03-05T12:49:35.355Z,9.30
2019-03-05T12:52:04.874Z,9.30
2019-03-05T12:54:34.381Z,9.30
2019-03-05T12:57:03.909Z,9.40
2019-03-05T12:59:33.483Z,9.60
2019-03-05T13:02:03.599Z,9.40
2019-03-05T13:04:33.190Z,9.40
2019-03-05T13:07:02.671Z,9.60
2019-03-05T13:09:32.373Z,9.60
2019-03-05T13:12:03.137Z,9.70
2019-03-05T13:14:32.976Z,9.50
2019-03-05T13:17:02.660Z,9.60
2019-03-05T13:19:32.539Z,9.80
2019-03-05T13:22:02.031Z,10.00
2019-03-05T13:24:31.791Z,10.20
2019-03-05T13:27:01.359Z,10.20
2019-03-05T13:29:31.389Z,10.00
2019-03-05T13:32:01.011Z,9.70
2019-03-05T13:34:30.632Z,9.60
2019-03-05T13:37:00.994Z,9.70
2019-03-05T13:39:30.770Z,9.80
2019-03-05T13:42:00.209Z,9.70
2019-03-05T13:44:45.729Z,9.70
2019-03-05T13:47:15.324Z,9.80
2019-03-05T13:50:20.475Z,9.60
2019-03-05T13:53:22.369Z,9.50
2019-03-05T13:56:28.015Z,9.50
2019-03-05T13:59:28.825Z,9.50
2019-03-05T14:01:58.570Z,9.60
2019-03-05T14:04:53.296Z,9.70
2019-03-05T14:07:51.919Z,9.50
2019-03-05T14:10:21.750Z,9.40
2019-03-05T14:12:51.372Z,9.40
2019-03-05T14:15:21.668Z,9.30
2019-03-05T14:17:51.238Z,9.30
2019-03-05T14:20:31.497Z,9.40
2019-03-05T14:22:51.923Z,9.40
2019-03-05T14:25:21.445Z,9.50
2019-03-05T14:27:50.946Z,9.50
2019-03-05T14:30:21.101Z,9.60
2019-03-05T14:32:51.470Z,9.60
2019-03-05T14:35:23.775Z,9.60
2019-03-05T14:37:54.699Z,9.70
2019-03-05T14:40:33.826Z,9.70
2019-03-05T14:43:05.700Z,9.70
2019-03-05T14:45:36.849Z,9.70
2019-03-05T14:48:06.530Z,9.80
2019-03-05T14:50:37.479Z,9.90
2019-03-05T14:53:07.219Z,10.00
2019-03-05T14:55:37.961Z,10.00
2019-03-05T14:58:07.554Z,9.90
2019-03-05T15:00:37.242Z,9.90
2019-03-05T15:03:06.796Z,9.80
2019-03-05T15:05:36.864Z,9.80
2019-03-05T15:08:06.431Z,9.70
2019-03-05T15:10:36.223Z,9.70
2019-03-05T15:13:15.726Z,9.70
2019-03-05T15:15:40.183Z,9.70
2019-03-05T15:18:09.731Z,9.60
2019-03-05T15:20:39.889Z,9.70
2019-03-05T15:23:13.426Z,9.60
2019-03-05T15:25:42.981Z,9.50
2019-03-05T15:28:12.459Z,9.50
2019-03-05T15:30:42.356Z,9.50
2019-03-05T15:33:11.944Z,9.50
2019-03-05T15:35:41.654Z,9.60
2019-03-05T15:38:11.162Z,9.70
2019-03-05T15:40:41.347Z,9.80
2019-03-05T15:43:10.984Z,9.80
2019-03-05T15:45:40.543Z,9.70
2019-03-05T15:48:10.152Z,9.60
2019-03-05T15:50:39.628Z,9.60
2019-03-05T15:53:09.128Z,9.50
2019-03-05T15:55:38.595Z,9.40
2019-03-05T15:58:13.646Z,9.30
2019-03-05T16:00:44.022Z,9.30
2019-03-05T16:03:13.710Z,9.20
2019-03-05T16:05:43.703Z,9.20
2019-03-05T16:08:13.436Z,9.10
2019-03-05T16:10:43.242Z,9.10
2019-03-05T16:13:15.254Z,9.00
2019-03-05T16:15:45.454Z,8.90
2019-03-05T16:18:15.503Z,9.00
2019-03-05T16:20:45.247Z,9.00
2019-03-05T16:23:15.003Z,9.00
2019-03-05T16:25:46.306Z,9.10
2019-03-05T16:28:16.639Z,9.10
2019-03-05T16:31:03.899Z,9.10
2019-03-05T16:33:51.071Z,9.10
2019-03-05T16:36:57.760Z,9.10
2019-03-05T16:39:49.206Z,9.10
2019-03-05T16:42:41.945Z,9.00
2019-03-05T16:45:29.024Z,8.90
2019-03-05T16:48:35.749Z,8.80
2019-03-05T16:51:26.971Z,8.70
2019-03-05T16:54:23.938Z,8.70
2019-03-05T16:57:08.224Z,8.60
2019-03-05T16:59:48.381Z,8.60
2019-03-05T17:02:36.226Z,8.50
2019-03-05T17:05:32.855Z,8.40
2019-03-05T17:08:27.163Z,8.40
2019-03-05T17:11:18.521Z,8.40
2019-03-05T17:13:48.055Z,8.40
2019-03-05T17:16:17.727Z,8.30
2019-03-05T17:18:47.349Z,8.20
2019-03-05T17:21:16.884Z,8.20
2019-03-05T17:23:46.376Z,8.10
2019-03-05T17:26:15.954Z,8.00
2019-03-05T17:28:45.870Z,7.90
2019-03-05T17:31:15.429Z,7.80
2019-03-05T17:33:45.074Z,7.80
2019-03-05T17:36:14.567Z,7.80
2019-03-05T17:38:44.245Z,7.80
2019-03-05T17:41:13.943Z,7.70
2019-03-05T17:43:43.760Z,7.70
2019-03-05T17:46:14.193Z,7.60
2019-03-05T17:48:43.787Z,7.60
2019-03-05T17:51:13.386Z,7.60
2019-03-05T17:53:42.909Z,7.50
2019-03-05T17:56:12.540Z,7.50
2019-03-05T17:58:42.774Z,7.40
2019-03-05T18:01:12.250Z,7.50
2019-03-05T18:03:41.778Z,7.50
2019-03-05T18:06:11.551Z,7.40
2019-03-05T18:08:51.071Z,7.40
2019-03-05T18:11:20.609Z,7.40
2019-03-05T18:13:50.468Z,7.30
2019-03-05T18:16:20.131Z,7.30
2019-03-05T18:18:49.610Z,7.30
2019-03-05T18:21:19.090Z,7.30
2019-03-05T18:23:48.550Z,7.30
2019-03-05T18:26:18.050Z,7.20
2019-03-05T18:28:47.704Z,7.20
2019-03-05T18:31:18.081Z,7.10
2019-03-05T18:33:47.540Z,7.10
2019-03-05T18:36:17.115Z,7.00
2019-03-05T18:38:46.606Z,6.90
2019-03-05T18:41:16.278Z,6.90
2019-03-05T18:43:45.900Z,6.90
2019-03-05T18:46:15.558Z,6.90
2019-03-05T18:48:46.143Z,6.90
2019-03-05T18:51:15.785Z,6.80
2019-03-05T18:53:45.936Z,6.70
2019-03-05T18:56:15.516Z,6.80
2019-03-05T18:58:45.059Z,6.80
2019-03-05T19:01:15.957Z,6.80
2019-03-05T19:03:46.559Z,6.70
2019-03-05T19:06:16.711Z,6.70
2019-03-05T19:08:46.284Z,6.70
2019-03-05T19:11:16.130Z,6.60
2019-03-05T19:13:45.739Z,6.60
2019-03-05T19:16:15.280Z,6.70
2019-03-05T19:18:44.926Z,6.80
2019-03-05T19:21:14.601Z,6.80
2019-03-05T19:23:44.118Z,6.80
2019-03-05T19:26:14.648Z,6.80
2019-03-05T19:28:44.281Z,6.80
2019-03-05T19:31:13.742Z,6.70
2019-03-05T19:33:43.829Z,6.60
2019-03-05T19:36:16.269Z,6.70
2019-03-05T19:38:45.759Z,6.60
2019-03-05T19:41:15.279Z,6.60
2019-03-05T19:43:44.962Z,6.50
2019-03-05T19:46:14.797Z,6.40
2019-03-05T19:48:44.273Z,6.40
2019-03-05T19:51:13.838Z,6.30
2019-03-05T19:53:43.392Z,6.40
2019-03-05T19:56:13.005Z,6.40
2019-03-05T19:58:42.557Z,6.40
2019-03-05T20:01:18.065Z,6.50
2019-03-05T20:03:47.517Z,6.50
2019-03-05T20:06:18.496Z,6.50
2019-03-05T20:08:50.352Z,6.50
2019-03-05T20:11:19.904Z,6.50
2019-03-05T20:13:49.440Z,6.50
2019-03-05T20:16:20.340Z,6.40
2019-03-05T20:18:49.897Z,6.30
2019-03-05T20:21:19.488Z,6.30
2019-03-05T20:23:48.951Z,6.30
2019-03-05T20:26:18.743Z,6.30
2019-03-05T20:28:48.358Z,6.30
2019-03-05T20:31:18.394Z,6.30
2019-03-05T20:33:47.920Z,6.30
2019-03-05T20:36:17.448Z,6.40
2019-03-05T20:38:46.936Z,6.40
2019-03-05T20:41:17.148Z,6.50
2019-03-05T20:43:46.987Z,6.50
2019-03-05T20:46:26.379Z,6.50
2019-03-05T20:48:56.082Z,6.50
2019-03-05T20:51:25.846Z,6.50
2019-03-05T20:53:56.015Z,6.40
2019-03-05T20:56:26.080Z,6.40
2019-03-05T20:58:55.660Z,6.40
2019-03-05T21:01:25.121Z,6.40
2019-03-05T21:03:55.594Z,6.40
2019-03-05T21:06:26.286Z,6.30
2019-03-05T21:08:55.748Z,6.30
2019-03-05T21:11:26.442Z,6.30
2019-03-05T21:13:58.283Z,6.30
2019-03-05T21:16:28.048Z,6.30
2019-03-05T21:18:58.227Z,6.30
2019-03-05T21:21:27.917Z,6.20
2019-03-05T21:23:57.551Z,6.20
2019-03-05T21:26:27.106Z,6.20
2019-03-05T21:28:56.996Z,6.20
2019-03-05T21:31:26.514Z,6.20
2019-03-05T21:33:56.093Z,6.20
2019-03-05T21:36:25.696Z,6.20
2019-03-05T21:38:55.372Z,6.20
2019-03-05T21:41:25.030Z,6.20
2019-03-05T21:43:54.570Z,6.20
2019-03-05T21:46:24.076Z,6.10
2019-03-05T21:48:53.546Z,6.10
2019-03-05T21:51:23.108Z,6.00
2019-03-05T21:53:52.629Z,6.00
2019-03-05T21:56:22.244Z,6.00
2019-03-05T21:58:51.850Z,5.90
2019-03-05T22:01:21.377Z,5.90
2019-03-05T22:03:51.166Z,5.90
2019-03-05T22:06:20.715Z,5.80
2019-03-05T22:08:50.216Z,5.80
2019-03-05T22:11:19.864Z,5.80
2019-03-05T22:13:49.495Z,5.70
2019-03-05T22:16:19.048Z,5.70
2019-03-05T22:18:48.735Z,5.70
2019-03-05T22:21:18.337Z,5.60
2019-03-05T22:23:48.718Z,5.60
2019-03-05T22:26:18.297Z,5.60
2019-03-05T22:28:47.750Z,5.60
2019-03-05T22:31:17.287Z,5.60
2019-03-05T22:33:46.710Z,5.60
2019-03-05T22:36:16.401Z,5.60
2019-03-05T22:38:46.002Z,5.60
2019-03-05T22:41:15.705Z,5.60
2019-03-05T22:43:45.512Z,5.50
2019-03-05T22:46:15.080Z,5.50
2019-03-05T22:48:44.586Z,5.40
2019-03-05T22:51:14.537Z,5.40
2019-03-05T22:53:44.169Z,5.40
2019-03-05T22:56:14.777Z,5.30
2019-03-05T22:58:44.274Z,5.30
2019-03-05T23:01:19.585Z,5.30
2019-03-05T23:03:53.496Z,5.30
2019-03-05T23:06:23.239Z,5.20
2019-03-05T23:08:52.846Z,5.30
2019-03-05T23:11:22.303Z,5.30
2019-03-05T23:13:52.747Z,5.20
2019-03-05T23:16:23.713Z,5.20
2019-03-05T23:18:53.217Z,5.10
2019-03-05T23:21:22.932Z,5.10
2019-03-05T23:23:52.760Z,5.10
2019-03-05T23:26:22.253Z,5.10
2019-03-05T23:28:51.768Z,5.10
2019-03-05T23:31:21.308Z,5.00
2019-03-05T23:33:50.835Z,5.00
2019-03-05T23:36:20.470Z,4.90
2019-03-05T23:38:50.230Z,4.90
2019-03-05T23:41:20.842Z,4.80
2019-03-05T23:43:50.339Z,4.80
2019-03-05T23:46:19.899Z,4.80
2019-03-05T23:48:49.508Z,4.70
2019-03-05T23:51:19.295Z,4.60
2019-03-05T23:53:48.761Z,4.60
2019-03-05T23:56:18.343Z,4.50
2019-03-05T23:58:47.843Z,4.50
